EastWest Aircraft Sales has several offices across the USA. See map for information on the nearest airstrips.

Naples Municipal Airport

Available data for KAPF from the past 2 hours
NAPLES MUNICIPAL, FL
Metar
KAPF 221453Z 08009KT 10SM SCT016 29/24 A3001 RMK AO2 SLP162 T02940244 53012

14:53 UTC

Wind: 80° 9kt

Visibility: 10 SM

Sky: SCT 1600 ft

Temp: 29 deg C / 84.2 deg F

Dewpoint: 24 deg C / 75.2 deg F

Pressure: 30.01 inHg

TAF
KAPF 221508Z 2215/2312 07006KT P6SM FEW015 FM221900 24009KT P6SM VCTS SCT025CB BKN050 FM230200 00000KT P6SM FEW025 SCT050

Hillsboro Airport

Available data for KHIO from the past 2 hours
HILLSBORO/PORTLD, OR
Metar
KHIO 221453Z 17006KT 10SM FEW020 BKN038 OVC060 15/13 A2996 RMK AO2 RAE1358 SLP144 P0000 60001 T01500133 53010

14:53 UTC

Wind: 170° 6kt

Visibility: 10 SM

Sky: FEW 2000 ft

Temp: 15 deg C / 59 deg F

Dewpoint: 13 deg C / 55.4 deg F

Pressure: 29.96 inHg

TAF
KHIO 221127Z 2212/2312 19006KT P6SM -SHRA SCT025 BKN040 BKN060 FM221700 20010KT P6SM -SHRA SCT020 BKN035 BKN050 FM222200 26009KT P6SM VCSH SCT030 BKN050 FM230200 29006KT P6SM SCT030 BKN050 FM230800 VRB02KT P6SM BKN045
Pireps (5)
PDX UA /OV KPDX100002/TM 1405/FLUNKN/TP DH8D/SK OVC018-TOPUNKN/RM DURC RY10L PDX
PDX UA /OV KPDX100002/TM 1405/FLUNKN/TP DH8D/SK OVC018-TOPUNKN/RM DURC RY10L PDX
PDX UA /OV KPDX100002/TM 1405/FLUNKN/TP DH8D/SK OVC018-TOPUNKN/RM DURC RY10L PDX
PDX UA /OV KPDX100002/TM 1405/FLUNKN/TP DH8D/SK OVC018-TOPUNKN/RM DURC RY10L PDX
PDX UA /OV KPDX100002/TM 1405/FLUNKN/TP DH8D/SK OVC018-TOPUNKN/RM DURC RY10L PDX